sensor_id;sensor_type;location;lat;lon;timestamp;temperature;humidity
75838;SHT30;64480;52.040;113.502;2023-05-17T00:02:30;22.66;15.90
75838;SHT30;64480;52.040;113.502;2023-05-17T00:05:34;22.96;15.42
75838;SHT30;64480;52.040;113.502;2023-05-17T00:08:38;23.14;15.46
75838;SHT30;64480;52.040;113.502;2023-05-17T00:11:41;22.77;15.37
75838;SHT30;64480;52.040;113.502;2023-05-17T00:14:45;22.65;15.71
75838;SHT30;64480;52.040;113.502;2023-05-17T00:17:48;22.93;15.47
75838;SHT30;64480;52.040;113.502;2023-05-17T00:20:52;22.65;15.23
75838;SHT30;64480;52.040;113.502;2023-05-17T00:23:55;22.55;15.42
75838;SHT30;64480;52.040;113.502;2023-05-17T00:26:59;22.61;15.06
75838;SHT30;64480;52.040;113.502;2023-05-17T00:30:03;22.77;15.14
75838;SHT30;64480;52.040;113.502;2023-05-17T00:33:10;22.13;15.60
75838;SHT30;64480;52.040;113.502;2023-05-17T00:36:15;23.26;14.95
75838;SHT30;64480;52.040;113.502;2023-05-17T00:39:26;23.21;14.85
75838;SHT30;64480;52.040;113.502;2023-05-17T00:42:31;22.27;15.62
75838;SHT30;64480;52.040;113.502;2023-05-17T00:45:35;21.06;16.25
75838;SHT30;64480;52.040;113.502;2023-05-17T00:48:39;19.45;17.54
75838;SHT30;64480;52.040;113.502;2023-05-17T00:51:44;18.56;18.11
75838;SHT30;64480;52.040;113.502;2023-05-17T00:54:49;17.50;19.21
75838;SHT30;64480;52.040;113.502;2023-05-17T00:57:53;17.10;19.53
75838;SHT30;64480;52.040;113.502;2023-05-17T01:00:58;16.77;20.22
75838;SHT30;64480;52.040;113.502;2023-05-17T01:04:02;16.32;20.24
75838;SHT30;64480;52.040;113.502;2023-05-17T01:07:09;16.00;20.86
75838;SHT30;64480;52.040;113.502;2023-05-17T01:10:13;15.76;20.80
75838;SHT30;64480;52.040;113.502;2023-05-17T01:13:26;15.55;21.50
75838;SHT30;64480;52.040;113.502;2023-05-17T01:16:38;15.40;20.75
75838;SHT30;64480;52.040;113.502;2023-05-17T01:20:13;15.05;21.48
75838;SHT30;64480;52.040;113.502;2023-05-17T01:26:39;15.39;21.24
75838;SHT30;64480;52.040;113.502;2023-05-17T01:29:43;15.42;20.72
75838;SHT30;64480;52.040;113.502;2023-05-17T01:32:48;15.08;21.10
75838;SHT30;64480;52.040;113.502;2023-05-17T01:35:53;15.08;21.08
75838;SHT30;64480;52.040;113.502;2023-05-17T01:38:56;15.10;21.21
75838;SHT30;64480;52.040;113.502;2023-05-17T01:42:21;14.91;21.30
75838;SHT30;64480;52.040;113.502;2023-05-17T01:45:41;15.04;21.57
75838;SHT30;64480;52.040;113.502;2023-05-17T01:48:59;15.02;21.65
75838;SHT30;64480;52.040;113.502;2023-05-17T01:52:17;14.69;21.59
75838;SHT30;64480;52.040;113.502;2023-05-17T01:55:25;14.50;21.75
75838;SHT30;64480;52.040;113.502;2023-05-17T01:58:44;14.50;22.12
75838;SHT30;64480;52.040;113.502;2023-05-17T02:01:48;14.69;21.97
75838;SHT30;64480;52.040;113.502;2023-05-17T02:04:55;15.05;21.86
75838;SHT30;64480;52.040;113.502;2023-05-17T02:08:01;15.24;22.17
75838;SHT30;64480;52.040;113.502;2023-05-17T02:11:04;15.38;21.89
75838;SHT30;64480;52.040;113.502;2023-05-17T02:14:08;15.67;21.89
75838;SHT30;64480;52.040;113.502;2023-05-17T02:17:14;15.63;21.13
75838;SHT30;64480;52.040;113.502;2023-05-17T02:20:18;15.66;21.60
75838;SHT30;64480;52.040;113.502;2023-05-17T02:23:21;15.84;21.64
75838;SHT30;64480;52.040;113.502;2023-05-17T02:26:26;16.11;21.48
75838;SHT30;64480;52.040;113.502;2023-05-17T02:29:30;16.41;21.32
75838;SHT30;64480;52.040;113.502;2023-05-17T02:32:34;16.35;20.97
75838;SHT30;64480;52.040;113.502;2023-05-17T02:35:38;15.98;21.57
75838;SHT30;64480;52.040;113.502;2023-05-17T02:38:42;15.71;21.35
75838;SHT30;64480;52.040;113.502;2023-05-17T02:41:46;15.94;21.24
75838;SHT30;64480;52.040;113.502;2023-05-17T02:44:50;16.00;21.33
75838;SHT30;64480;52.040;113.502;2023-05-17T02:47:58;15.93;21.63
75838;SHT30;64480;52.040;113.502;2023-05-17T02:51:02;15.93;21.42
75838;SHT30;64480;52.040;113.502;2023-05-17T02:54:05;16.10;21.12
75838;SHT30;64480;52.040;113.502;2023-05-17T02:57:09;16.10;21.07
75838;SHT30;64480;52.040;113.502;2023-05-17T03:00:13;16.05;21.51
75838;SHT30;64480;52.040;113.502;2023-05-17T03:03:18;16.57;21.00
75838;SHT30;64480;52.040;113.502;2023-05-17T03:06:25;17.10;20.32
75838;SHT30;64480;52.040;113.502;2023-05-17T03:09:28;17.55;20.07
75838;SHT30;64480;52.040;113.502;2023-05-17T03:12:37;17.82;19.65
75838;SHT30;64480;52.040;113.502;2023-05-17T03:15:57;18.15;19.77
75838;SHT30;64480;52.040;113.502;2023-05-17T03:19:20;18.48;19.18
75838;SHT30;64480;52.040;113.502;2023-05-17T03:22:39;18.46;19.03
75838;SHT30;64480;52.040;113.502;2023-05-17T03:25:54;18.35;19.06
75838;SHT30;64480;52.040;113.502;2023-05-17T03:29:05;18.41;19.42
75838;SHT30;64480;52.040;113.502;2023-05-17T03:32:11;18.56;19.24
75838;SHT30;64480;52.040;113.502;2023-05-17T03:35:16;18.69;19.05
75838;SHT30;64480;52.040;113.502;2023-05-17T03:38:25;18.99;18.65
75838;SHT30;64480;52.040;113.502;2023-05-17T03:41:31;18.97;18.53
75838;SHT30;64480;52.040;113.502;2023-05-17T03:44:35;19.14;18.01
75838;SHT30;64480;52.040;113.502;2023-05-17T03:47:48;18.34;18.23
75838;SHT30;64480;52.040;113.502;2023-05-17T03:50:52;18.34;18.48
75838;SHT30;64480;52.040;113.502;2023-05-17T03:53:59;18.60;18.49
75838;SHT30;64480;52.040;113.502;2023-05-17T03:57:05;18.80;18.50
75838;SHT30;64480;52.040;113.502;2023-05-17T04:00:11;19.17;18.01
75838;SHT30;64480;52.040;113.502;2023-05-17T04:03:17;19.48;17.46
75838;SHT30;64480;52.040;113.502;2023-05-17T04:06:23;19.29;17.73
75838;SHT30;64480;52.040;113.502;2023-05-17T04:09:29;19.44;17.80
75838;SHT30;64480;52.040;113.502;2023-05-17T04:12:35;19.54;17.39
75838;SHT30;64480;52.040;113.502;2023-05-17T04:15:41;19.72;17.51
75838;SHT30;64480;52.040;113.502;2023-05-17T04:18:44;19.83;17.40
75838;SHT30;64480;52.040;113.502;2023-05-17T04:21:49;20.06;17.47
75838;SHT30;64480;52.040;113.502;2023-05-17T04:24:59;19.67;17.68
75838;SHT30;64480;52.040;113.502;2023-05-17T04:28:04;19.77;17.77
75838;SHT30;64480;52.040;113.502;2023-05-17T04:31:21;19.80;17.56
75838;SHT30;64480;52.040;113.502;2023-05-17T04:34:27;19.38;17.79
75838;SHT30;64480;52.040;113.502;2023-05-17T04:37:40;19.18;18.03
75838;SHT30;64480;52.040;113.502;2023-05-17T04:40:52;19.07;17.94
75838;SHT30;64480;52.040;113.502;2023-05-17T04:43:56;18.69;18.27
75838;SHT30;64480;52.040;113.502;2023-05-17T04:47:06;18.52;18.64
75838;SHT30;64480;52.040;113.502;2023-05-17T04:50:10;18.19;19.19
75838;SHT30;64480;52.040;113.502;2023-05-17T04:53:14;18.42;18.82
75838;SHT30;64480;52.040;113.502;2023-05-17T04:56:18;18.69;18.59
75838;SHT30;64480;52.040;113.502;2023-05-17T04:59:23;19.03;18.47
75838;SHT30;64480;52.040;113.502;2023-05-17T05:02:26;19.24;17.79
75838;SHT30;64480;52.040;113.502;2023-05-17T05:05:30;19.31;18.01
75838;SHT30;64480;52.040;113.502;2023-05-17T05:08:34;19.49;17.78
75838;SHT30;64480;52.040;113.502;2023-05-17T05:11:43;19.22;17.72
75838;SHT30;64480;52.040;113.502;2023-05-17T05:14:46;19.22;18.04
75838;SHT30;64480;52.040;113.502;2023-05-17T05:17:51;19.41;17.84
75838;SHT30;64480;52.040;113.502;2023-05-17T05:20:55;19.74;17.92
75838;SHT30;64480;52.040;113.502;2023-05-17T05:23:59;19.94;17.59
75838;SHT30;64480;52.040;113.502;2023-05-17T05:27:04;20.07;17.36
75838;SHT30;64480;52.040;113.502;2023-05-17T05:30:10;19.96;17.49
75838;SHT30;64480;52.040;113.502;2023-05-17T05:33:14;19.76;17.38
75838;SHT30;64480;52.040;113.502;2023-05-17T05:36:19;19.79;17.21
75838;SHT30;64480;52.040;113.502;2023-05-17T05:39:24;19.67;17.33
75838;SHT30;64480;52.040;113.502;2023-05-17T05:42:28;19.79;17.35
75838;SHT30;64480;52.040;113.502;2023-05-17T05:45:34;19.74;17.33
75838;SHT30;64480;52.040;113.502;2023-05-17T05:48:54;19.46;17.75
75838;SHT30;64480;52.040;113.502;2023-05-17T05:51:59;19.54;17.72
75838;SHT30;64480;52.040;113.502;2023-05-17T05:55:10;19.65;17.84
75838;SHT30;64480;52.040;113.502;2023-05-17T05:58:15;19.80;17.91
75838;SHT30;64480;52.040;113.502;2023-05-17T06:01:23;19.80;17.45
75838;SHT30;64480;52.040;113.502;2023-05-17T06:04:28;19.73;17.51
75838;SHT30;64480;52.040;113.502;2023-05-17T06:07:56;19.32;17.95
75838;SHT30;64480;52.040;113.502;2023-05-17T06:10:59;19.34;17.87
75838;SHT30;64480;52.040;113.502;2023-05-17T06:14:03;19.20;18.03
75838;SHT30;64480;52.040;113.502;2023-05-17T06:17:20;19.15;17.99
75838;SHT30;64480;52.040;113.502;2023-05-17T06:20:25;18.89;17.88
75838;SHT30;64480;52.040;113.502;2023-05-17T06:23:36;18.49;18.43
75838;SHT30;64480;52.040;113.502;2023-05-17T06:26:40;18.46;18.57
75838;SHT30;64480;52.040;113.502;2023-05-17T06:29:46;18.62;18.51
75838;SHT30;64480;52.040;113.502;2023-05-17T06:32:49;18.79;18.42
75838;SHT30;64480;52.040;113.502;2023-05-17T06:35:54;18.90;18.25
75838;SHT30;64480;52.040;113.502;2023-05-17T06:38:59;19.21;18.03
75838;SHT30;64480;52.040;113.502;2023-05-17T06:42:04;19.18;17.96
75838;SHT30;64480;52.040;113.502;2023-05-17T06:45:16;19.41;17.75
75838;SHT30;64480;52.040;113.502;2023-05-17T06:48:28;19.67;17.68
75838;SHT30;64480;52.040;113.502;2023-05-17T06:51:35;19.76;17.57
75838;SHT30;64480;52.040;113.502;2023-05-17T06:54:49;19.73;17.39
75838;SHT30;64480;52.040;113.502;2023-05-17T06:57:56;19.96;17.37
75838;SHT30;64480;52.040;113.502;2023-05-17T07:01:04;20.27;17.24
75838;SHT30;64480;52.040;113.502;2023-05-17T07:04:09;20.52;17.11
75838;SHT30;64480;52.040;113.502;2023-05-17T07:07:20;20.73;16.74
75838;SHT30;64480;52.040;113.502;2023-05-17T07:10:25;20.66;16.46
75838;SHT30;64480;52.040;113.502;2023-05-17T07:13:30;20.79;16.63
75838;SHT30;64480;52.040;113.502;2023-05-17T07:16:33;20.57;16.87
75838;SHT30;64480;52.040;113.502;2023-05-17T07:19:42;20.31;17.02
75838;SHT30;64480;52.040;113.502;2023-05-17T07:22:46;20.55;16.86
75838;SHT30;64480;52.040;113.502;2023-05-17T07:25:51;20.61;17.19
75838;SHT30;64480;52.040;113.502;2023-05-17T07:28:55;20.73;16.83
75838;SHT30;64480;52.040;113.502;2023-05-17T07:31:59;20.32;16.86
75838;SHT30;64480;52.040;113.502;2023-05-17T07:35:02;19.83;17.19
75838;SHT30;64480;52.040;113.502;2023-05-17T07:38:06;19.51;17.45
75838;SHT30;64480;52.040;113.502;2023-05-17T07:41:10;19.58;18.04
75838;SHT30;64480;52.040;113.502;2023-05-17T07:44:15;19.66;17.88
75838;SHT30;64480;52.040;113.502;2023-05-17T07:47:19;19.86;17.40
75838;SHT30;64480;52.040;113.502;2023-05-17T07:50:23;19.94;17.45
75838;SHT30;64480;52.040;113.502;2023-05-17T07:53:36;19.54;17.44
75838;SHT30;64480;52.040;113.502;2023-05-17T08:00:39;19.72;17.84
75838;SHT30;64480;52.040;113.502;2023-05-17T08:07:10;20.69;17.13
75838;SHT30;64480;52.040;113.502;2023-05-17T08:10:14;20.59;17.55
75838;SHT30;64480;52.040;113.502;2023-05-17T08:13:19;20.42;17.65
75838;SHT30;64480;52.040;113.502;2023-05-17T08:16:29;20.03;18.11
75838;SHT30;64480;52.040;113.502;2023-05-17T08:19:33;19.98;18.22
75838;SHT30;64480;52.040;113.502;2023-05-17T08:22:37;20.11;18.05
75838;SHT30;64480;52.040;113.502;2023-05-17T08:25:40;20.13;18.15
75838;SHT30;64480;52.040;113.502;2023-05-17T08:28:44;20.14;18.13
75838;SHT30;64480;52.040;113.502;2023-05-17T08:31:48;20.13;17.95
75838;SHT30;64480;52.040;113.502;2023-05-17T08:35:06;19.87;18.15
75838;SHT30;64480;52.040;113.502;2023-05-17T08:38:10;19.73;18.02
75838;SHT30;64480;52.040;113.502;2023-05-17T08:41:14;19.28;18.44
75838;SHT30;64480;52.040;113.502;2023-05-17T08:44:17;19.28;18.65
75838;SHT30;64480;52.040;113.502;2023-05-17T08:47:21;19.34;18.62
75838;SHT30;64480;52.040;113.502;2023-05-17T08:50:32;19.55;18.66
75838;SHT30;64480;52.040;113.502;2023-05-17T08:53:37;19.90;18.37
75838;SHT30;64480;52.040;113.502;2023-05-17T08:56:41;20.00;18.28
75838;SHT30;64480;52.040;113.502;2023-05-17T08:59:46;20.06;18.43
75838;SHT30;64480;52.040;113.502;2023-05-17T09:02:50;19.79;19.23
75838;SHT30;64480;52.040;113.502;2023-05-17T09:05:53;19.36;20.01
75838;SHT30;64480;52.040;113.502;2023-05-17T09:08:57;19.15;20.70
75838;SHT30;64480;52.040;113.502;2023-05-17T09:12:03;19.00;20.31
75838;SHT30;64480;52.040;113.502;2023-05-17T09:15:18;18.89;20.40
75838;SHT30;64480;52.040;113.502;2023-05-17T09:18:31;18.93;20.34
75838;SHT30;64480;52.040;113.502;2023-05-17T09:21:36;18.89;20.43
75838;SHT30;64480;52.040;113.502;2023-05-17T09:24:40;19.04;20.22
75838;SHT30;64480;52.040;113.502;2023-05-17T09:27:44;19.34;19.80
75838;SHT30;64480;52.040;113.502;2023-05-17T09:30:50;19.70;19.71
75838;SHT30;64480;52.040;113.502;2023-05-17T09:33:58;19.79;19.46
75838;SHT30;64480;52.040;113.502;2023-05-17T09:37:01;19.79;19.31
75838;SHT30;64480;52.040;113.502;2023-05-17T09:40:08;19.67;19.37
75838;SHT30;64480;52.040;113.502;2023-05-17T09:43:13;19.34;19.29
75838;SHT30;64480;52.040;113.502;2023-05-17T09:46:19;19.17;19.79
75838;SHT30;64480;52.040;113.502;2023-05-17T09:49:26;19.11;19.55
75838;SHT30;64480;52.040;113.502;2023-05-17T09:52:34;18.96;19.75
75838;SHT30;64480;52.040;113.502;2023-05-17T09:55:39;18.72;20.19
75838;SHT30;64480;52.040;113.502;2023-05-17T09:58:43;18.70;20.46
75838;SHT30;64480;52.040;113.502;2023-05-17T10:01:49;18.53;20.72
75838;SHT30;64480;52.040;113.502;2023-05-17T10:04:57;18.27;20.55
75838;SHT30;64480;52.040;113.502;2023-05-17T10:08:02;17.87;20.60
75838;SHT30;64480;52.040;113.502;2023-05-17T10:11:09;17.62;21.27
75838;SHT30;64480;52.040;113.502;2023-05-17T10:14:22;17.49;21.58
75838;SHT30;64480;52.040;113.502;2023-05-17T10:17:29;17.34;21.64
75838;SHT30;64480;52.040;113.502;2023-05-17T10:20:35;17.22;21.93
75838;SHT30;64480;52.040;113.502;2023-05-17T10:23:40;17.07;21.69
75838;SHT30;64480;52.040;113.502;2023-05-17T10:26:48;16.95;21.76
75838;SHT30;64480;52.040;113.502;2023-05-17T10:29:53;16.94;22.00
75838;SHT30;64480;52.040;113.502;2023-05-17T10:32:58;17.07;21.78
75838;SHT30;64480;52.040;113.502;2023-05-17T10:36:13;17.12;21.61
75838;SHT30;64480;52.040;113.502;2023-05-17T10:39:20;17.22;21.45
75838;SHT30;64480;52.040;113.502;2023-05-17T10:42:25;17.34;21.73
75838;SHT30;64480;52.040;113.502;2023-05-17T10:45:30;17.42;21.66
75838;SHT30;64480;52.040;113.502;2023-05-17T10:48:35;17.48;21.61
75838;SHT30;64480;52.040;113.502;2023-05-17T10:51:39;17.40;21.69
75838;SHT30;64480;52.040;113.502;2023-05-17T10:54:44;17.38;21.75
75838;SHT30;64480;52.040;113.502;2023-05-17T11:01:51;17.21;21.82
75838;SHT30;64480;52.040;113.502;2023-05-17T11:04:59;17.11;22.16
75838;SHT30;64480;52.040;113.502;2023-05-17T11:08:15;16.93;22.30
75838;SHT30;64480;52.040;113.502;2023-05-17T11:11:23;16.76;22.77
75838;SHT30;64480;52.040;113.502;2023-05-17T11:14:41;16.56;22.57
75838;SHT30;64480;52.040;113.502;2023-05-17T11:17:49;16.41;22.81
75838;SHT30;64480;52.040;113.502;2023-05-17T11:21:08;16.30;23.10
75838;SHT30;64480;52.040;113.502;2023-05-17T11:24:24;16.25;23.50
75838;SHT30;64480;52.040;113.502;2023-05-17T11:27:36;16.26;23.86
75838;SHT30;64480;52.040;113.502;2023-05-17T11:30:41;16.19;24.19
75838;SHT30;64480;52.040;113.502;2023-05-17T11:33:53;16.15;23.98
75838;SHT30;64480;52.040;113.502;2023-05-17T11:36:57;16.08;24.17
75838;SHT30;64480;52.040;113.502;2023-05-17T11:40:06;16.01;24.08
75838;SHT30;64480;52.040;113.502;2023-05-17T11:43:11;15.94;24.07
75838;SHT30;64480;52.040;113.502;2023-05-17T11:46:22;15.89;24.19
75838;SHT30;64480;52.040;113.502;2023-05-17T11:49:27;15.87;24.33
75838;SHT30;64480;52.040;113.502;2023-05-17T11:52:39;15.82;24.31
75838;SHT30;64480;52.040;113.502;2023-05-17T11:55:48;15.80;24.45
75838;SHT30;64480;52.040;113.502;2023-05-17T11:58:55;15.74;24.52
75838;SHT30;64480;52.040;113.502;2023-05-17T12:01:58;15.69;24.60
75838;SHT30;64480;52.040;113.502;2023-05-17T12:05:02;15.59;24.94
75838;SHT30;64480;52.040;113.502;2023-05-17T12:08:05;15.53;25.32
75838;SHT30;64480;52.040;113.502;2023-05-17T12:11:16;15.43;25.84
75838;SHT30;64480;52.040;113.502;2023-05-17T12:14:20;15.35;26.06
75838;SHT30;64480;52.040;113.502;2023-05-17T12:17:34;15.28;26.52
75838;SHT30;64480;52.040;113.502;2023-05-17T12:20:55;15.14;27.16
75838;SHT30;64480;52.040;113.502;2023-05-17T12:23:59;14.97;27.34
75838;SHT30;64480;52.040;113.502;2023-05-17T12:27:03;14.77;27.79
75838;SHT30;64480;52.040;113.502;2023-05-17T12:30:14;14.60;28.35
75838;SHT30;64480;52.040;113.502;2023-05-17T12:33:18;14.47;28.87
75838;SHT30;64480;52.040;113.502;2023-05-17T12:36:35;14.35;28.88
75838;SHT30;64480;52.040;113.502;2023-05-17T12:39:39;14.32;29.30
75838;SHT30;64480;52.040;113.502;2023-05-17T12:42:43;14.30;29.32
75838;SHT30;64480;52.040;113.502;2023-05-17T12:45:46;14.29;29.30
75838;SHT30;64480;52.040;113.502;2023-05-17T12:48:50;14.26;29.07
75838;SHT30;64480;52.040;113.502;2023-05-17T12:51:54;14.24;29.22
75838;SHT30;64480;52.040;113.502;2023-05-17T12:54:58;14.18;29.49
75838;SHT30;64480;52.040;113.502;2023-05-17T12:58:02;14.12;29.47
75838;SHT30;64480;52.040;113.502;2023-05-17T13:01:06;14.02;29.76
75838;SHT30;64480;52.040;113.502;2023-05-17T13:04:15;13.88;29.91
75838;SHT30;64480;52.040;113.502;2023-05-17T13:07:21;13.80;30.23
75838;SHT30;64480;52.040;113.502;2023-05-17T13:10:28;13.74;30.53
75838;SHT30;64480;52.040;113.502;2023-05-17T13:13:32;13.66;30.69
75838;SHT30;64480;52.040;113.502;2023-05-17T13:16:39;13.60;30.76
75838;SHT30;64480;52.040;113.502;2023-05-17T13:19:42;13.50;31.22
75838;SHT30;64480;52.040;113.502;2023-05-17T13:22:47;13.43;31.32
75838;SHT30;64480;52.040;113.502;2023-05-17T13:25:50;13.36;31.44
75838;SHT30;64480;52.040;113.502;2023-05-17T13:28:55;13.23;31.76
75838;SHT30;64480;52.040;113.502;2023-05-17T13:31:59;13.11;32.14
75838;SHT30;64480;52.040;113.502;2023-05-17T13:35:03;13.00;32.66
75838;SHT30;64480;52.040;113.502;2023-05-17T13:38:07;12.87;32.73
75838;SHT30;64480;52.040;113.502;2023-05-17T13:41:10;12.73;33.02
75838;SHT30;64480;52.040;113.502;2023-05-17T13:44:14;12.61;33.48
75838;SHT30;64480;52.040;113.502;2023-05-17T13:47:17;12.52;33.65
75838;SHT30;64480;52.040;113.502;2023-05-17T13:50:21;12.40;33.85
75838;SHT30;64480;52.040;113.502;2023-05-17T13:53:25;12.35;33.77
75838;SHT30;64480;52.040;113.502;2023-05-17T13:56:29;12.26;33.98
75838;SHT30;64480;52.040;113.502;2023-05-17T13:59:33;12.15;34.38
75838;SHT30;64480;52.040;113.502;2023-05-17T14:02:36;12.06;34.70
75838;SHT30;64480;52.040;113.502;2023-05-17T14:05:40;11.94;34.74
75838;SHT30;64480;52.040;113.502;2023-05-17T14:08:43;11.78;35.31
75838;SHT30;64480;52.040;113.502;2023-05-17T14:11:48;11.67;36.52
75838;SHT30;64480;52.040;113.502;2023-05-17T14:14:51;11.56;37.12
75838;SHT30;64480;52.040;113.502;2023-05-17T14:17:55;11.46;37.22
75838;SHT30;64480;52.040;113.502;2023-05-17T14:20:59;11.33;37.19
75838;SHT30;64480;52.040;113.502;2023-05-17T14:24:03;11.19;37.48
75838;SHT30;64480;52.040;113.502;2023-05-17T14:27:06;11.15;37.88
75838;SHT30;64480;52.040;113.502;2023-05-17T14:30:10;11.07;37.96
75838;SHT30;64480;52.040;113.502;2023-05-17T14:33:14;11.02;38.16
75838;SHT30;64480;52.040;113.502;2023-05-17T14:36:18;11.01;38.13
75838;SHT30;64480;52.040;113.502;2023-05-17T14:39:22;11.04;38.20
75838;SHT30;64480;52.040;113.502;2023-05-17T14:42:25;11.10;38.29
75838;SHT30;64480;52.040;113.502;2023-05-17T14:45:29;11.14;38.38
75838;SHT30;64480;52.040;113.502;2023-05-17T14:48:32;11.16;38.17
75838;SHT30;64480;52.040;113.502;2023-05-17T14:51:39;11.22;38.32
75838;SHT30;64480;52.040;113.502;2023-05-17T14:54:42;11.28;38.50
75838;SHT30;64480;52.040;113.502;2023-05-17T14:57:46;11.28;38.29
75838;SHT30;64480;52.040;113.502;2023-05-17T15:00:52;11.18;38.48
75838;SHT30;64480;52.040;113.502;2023-05-17T15:04:07;11.12;38.73
75838;SHT30;64480;52.040;113.502;2023-05-17T15:07:12;11.08;38.97
75838;SHT30;64480;52.040;113.502;2023-05-17T15:10:16;11.02;39.22
75838;SHT30;64480;52.040;113.502;2023-05-17T15:13:19;11.05;39.33
75838;SHT30;64480;52.040;113.502;2023-05-17T15:16:23;10.94;39.17
75838;SHT30;64480;52.040;113.502;2023-05-17T15:19:27;10.87;39.42
75838;SHT30;64480;52.040;113.502;2023-05-17T15:22:30;10.77;39.56
75838;SHT30;64480;52.040;113.502;2023-05-17T15:25:34;10.68;40.02
75838;SHT30;64480;52.040;113.502;2023-05-17T15:28:38;10.71;39.59
75838;SHT30;64480;52.040;113.502;2023-05-17T15:31:41;10.68;39.12
75838;SHT30;64480;52.040;113.502;2023-05-17T15:34:45;10.66;39.16
75838;SHT30;64480;52.040;113.502;2023-05-17T15:37:50;10.52;38.91
75838;SHT30;64480;52.040;113.502;2023-05-17T15:41:06;10.43;39.18
75838;SHT30;64480;52.040;113.502;2023-05-17T15:44:10;10.38;39.67
75838;SHT30;64480;52.040;113.502;2023-05-17T15:47:14;10.39;39.57
75838;SHT30;64480;52.040;113.502;2023-05-17T15:50:17;10.36;39.57
75838;SHT30;64480;52.040;113.502;2023-05-17T15:53:22;10.36;39.58
75838;SHT30;64480;52.040;113.502;2023-05-17T15:56:25;10.25;39.55
75838;SHT30;64480;52.040;113.502;2023-05-17T15:59:29;10.16;39.83
75838;SHT30;64480;52.040;113.502;2023-05-17T16:02:33;10.15;39.69
75838;SHT30;64480;52.040;113.502;2023-05-17T16:05:37;10.04;39.75
75838;SHT30;64480;52.040;113.502;2023-05-17T16:08:40;9.98;40.16
75838;SHT30;64480;52.040;113.502;2023-05-17T16:11:44;9.98;40.25
75838;SHT30;64480;52.040;113.502;2023-05-17T16:14:48;9.98;40.43
75838;SHT30;64480;52.040;113.502;2023-05-17T16:17:51;9.95;40.37
75838;SHT30;64480;52.040;113.502;2023-05-17T16:20:58;9.98;40.63
75838;SHT30;64480;52.040;113.502;2023-05-17T16:24:02;9.94;40.88
75838;SHT30;64480;52.040;113.502;2023-05-17T16:27:06;9.94;41.31
75838;SHT30;64480;52.040;113.502;2023-05-17T16:30:10;9.85;41.77
75838;SHT30;64480;52.040;113.502;2023-05-17T16:33:14;9.77;42.10
75838;SHT30;64480;52.040;113.502;2023-05-17T16:36:18;9.64;42.65
75838;SHT30;64480;52.040;113.502;2023-05-17T16:39:24;9.54;42.69
75838;SHT30;64480;52.040;113.502;2023-05-17T16:42:29;9.40;42.79
75838;SHT30;64480;52.040;113.502;2023-05-17T16:45:33;9.35;42.99
75838;SHT30;64480;52.040;113.502;2023-05-17T16:48:36;9.25;43.05
75838;SHT30;64480;52.040;113.502;2023-05-17T16:51:43;9.14;43.15
75838;SHT30;64480;52.040;113.502;2023-05-17T16:54:47;9.05;42.88
75838;SHT30;64480;52.040;113.502;2023-05-17T16:57:51;8.94;42.94
75838;SHT30;64480;52.040;113.502;2023-05-17T17:00:57;8.89;42.76
75838;SHT30;64480;52.040;113.502;2023-05-17T17:04:25;8.77;42.34
75838;SHT30;64480;52.040;113.502;2023-05-17T17:07:29;8.64;42.48
75838;SHT30;64480;52.040;113.502;2023-05-17T17:10:32;8.59;43.04
75838;SHT30;64480;52.040;113.502;2023-05-17T17:13:37;8.49;43.64
75838;SHT30;64480;52.040;113.502;2023-05-17T17:16:41;8.39;44.03
75838;SHT30;64480;52.040;113.502;2023-05-17T17:19:44;8.35;44.35
75838;SHT30;64480;52.040;113.502;2023-05-17T17:22:48;8.26;44.26
75838;SHT30;64480;52.040;113.502;2023-05-17T17:25:54;8.21;44.55
75838;SHT30;64480;52.040;113.502;2023-05-17T17:28:58;8.15;44.50
75838;SHT30;64480;52.040;113.502;2023-05-17T17:32:05;8.09;44.86
75838;SHT30;64480;52.040;113.502;2023-05-17T17:35:09;7.98;45.17
75838;SHT30;64480;52.040;113.502;2023-05-17T17:38:16;7.92;45.49
75838;SHT30;64480;52.040;113.502;2023-05-17T17:41:19;7.84;45.97
75838;SHT30;64480;52.040;113.502;2023-05-17T17:44:27;7.74;46.86
75838;SHT30;64480;52.040;113.502;2023-05-17T17:47:36;7.60;47.25
75838;SHT30;64480;52.040;113.502;2023-05-17T17:50:42;7.55;47.71
75838;SHT30;64480;52.040;113.502;2023-05-17T17:53:55;7.49;48.44
75838;SHT30;64480;52.040;113.502;2023-05-17T17:56:58;7.45;48.64
75838;SHT30;64480;52.040;113.502;2023-05-17T18:00:02;7.38;49.00
75838;SHT30;64480;52.040;113.502;2023-05-17T18:03:06;7.29;49.42
75838;SHT30;64480;52.040;113.502;2023-05-17T18:06:27;7.25;49.83
75838;SHT30;64480;52.040;113.502;2023-05-17T18:09:30;7.21;49.84
75838;SHT30;64480;52.040;113.502;2023-05-17T18:12:41;7.18;49.86
75838;SHT30;64480;52.040;113.502;2023-05-17T18:16:09;7.09;49.63
75838;SHT30;64480;52.040;113.502;2023-05-17T18:19:16;7.07;49.11
75838;SHT30;64480;52.040;113.502;2023-05-17T18:22:44;7.08;48.74
75838;SHT30;64480;52.040;113.502;2023-05-17T18:25:48;7.09;48.09
75838;SHT30;64480;52.040;113.502;2023-05-17T18:29:17;7.01;47.91
75838;SHT30;64480;52.040;113.502;2023-05-17T18:32:36;6.95;47.77
75838;SHT30;64480;52.040;113.502;2023-05-17T18:36:05;6.87;47.80
75838;SHT30;64480;52.040;113.502;2023-05-17T18:39:30;6.80;47.76
75838;SHT30;64480;52.040;113.502;2023-05-17T18:42:37;6.77;47.75
75838;SHT30;64480;52.040;113.502;2023-05-17T18:45:40;6.73;47.61
75838;SHT30;64480;52.040;113.502;2023-05-17T18:48:47;6.73;47.75
75838;SHT30;64480;52.040;113.502;2023-05-17T18:51:50;6.64;47.88
75838;SHT30;64480;52.040;113.502;2023-05-17T18:54:54;6.56;47.97
75838;SHT30;64480;52.040;113.502;2023-05-17T19:01:38;6.46;48.21
75838;SHT30;64480;52.040;113.502;2023-05-17T19:04:42;6.39;48.14
75838;SHT30;64480;52.040;113.502;2023-05-17T19:07:49;6.36;48.08
75838;SHT30;64480;52.040;113.502;2023-05-17T19:10:56;6.30;48.39
75838;SHT30;64480;52.040;113.502;2023-05-17T19:13:59;6.29;49.10
75838;SHT30;64480;52.040;113.502;2023-05-17T19:17:06;6.18;49.69
75838;SHT30;64480;52.040;113.502;2023-05-17T19:20:15;6.07;49.98
75838;SHT30;64480;52.040;113.502;2023-05-17T19:23:18;5.97;50.07
75838;SHT30;64480;52.040;113.502;2023-05-17T19:26:23;5.94;50.33